createdAt,value
2022-09-13T00:01:47.697Z,100024.25
2022-09-13T00:04:49.171Z,100016.59
2022-09-13T00:07:50.736Z,100017.03
2022-09-13T00:10:52.134Z,100014.44
2022-09-13T00:13:54.383Z,100014.66
2022-09-13T00:16:55.761Z,99996.44
2022-09-13T00:19:57.230Z,99980.09
2022-09-13T00:22:58.596Z,99981.50
2022-09-13T00:26:09.282Z,99980.00
2022-09-13T00:29:10.641Z,99980.22
2022-09-13T00:32:12.326Z,99984.59
2022-09-13T00:35:13.722Z,99980.97
2022-09-13T00:38:15.106Z,99983.97
2022-09-13T00:41:18.646Z,99979.69
2022-09-13T00:44:56.044Z,99981.72
2022-09-13T00:48:03.085Z,99979.50
2022-09-13T00:51:07.177Z,99979.91
2022-09-13T00:54:09.584Z,99988.00
2022-09-13T00:57:13.984Z,99991.94
2022-09-13T01:00:19.284Z,99992.28
2022-09-13T01:03:23.748Z,99993.31
2022-09-13T01:06:32.940Z,99986.09
2022-09-13T01:09:38.132Z,99985.44
2022-09-13T01:12:48.363Z,99985.84
2022-09-13T01:15:49.999Z,99974.84
2022-09-13T01:18:51.369Z,99976.88
2022-09-13T01:21:58.764Z,99994.31
2022-09-13T01:25:28.227Z,99992.44
2022-09-13T01:28:41.288Z,99979.63
2022-09-13T01:31:50.093Z,99978.13
2022-09-13T01:35:06.331Z,99985.16
2022-09-13T01:38:15.042Z,99980.16
2022-09-13T01:41:32.695Z,99982.25
2022-09-13T01:44:55.147Z,99970.88
2022-09-13T01:48:02.901Z,99983.81
2022-09-13T01:51:13.465Z,99994.88
2022-09-13T01:54:45.358Z,99998.50
2022-09-13T01:58:11.401Z,100001.91
2022-09-13T02:01:18.419Z,100007.56
2022-09-13T02:04:24.429Z,100001.78
2022-09-13T02:07:40.749Z,99998.81
2022-09-13T02:10:48.482Z,99991.88
2022-09-13T02:14:07.217Z,99993.59
2022-09-13T02:17:13.514Z,99994.41
2022-09-13T02:20:25.806Z,100004.91
2022-09-13T02:23:37.860Z,100013.06
2022-09-13T02:26:41.737Z,100004.31
2022-09-13T02:29:47.306Z,100013.28
2022-09-13T02:32:52.614Z,100009.00
2022-09-13T02:36:04.341Z,100009.25
2022-09-13T02:39:13.054Z,100018.78
2022-09-13T02:42:19.659Z,100006.38
2022-09-13T02:45:25.874Z,100008.41
2022-09-13T02:48:56.477Z,100004.69
2022-09-13T02:52:04.991Z,100009.84
2022-09-13T02:55:38.163Z,100021.34
2022-09-13T02:59:13.325Z,100019.31
2022-09-13T03:02:19.156Z,99999.19
2022-09-13T03:05:20.596Z,100008.91
2022-09-13T03:08:23.315Z,99992.94
2022-09-13T03:11:49.402Z,99993.88
2022-09-13T03:15:18.732Z,99988.56
2022-09-13T03:18:48.261Z,99995.75
2022-09-13T03:22:15.753Z,99999.38
2022-09-13T03:25:39.430Z,99994.06
2022-09-13T03:28:54.873Z,99998.63
2022-09-13T03:32:03.239Z,99993.38
2022-09-13T03:35:22.709Z,99994.25
2022-09-13T03:38:38.284Z,99987.41
2022-09-13T03:41:46.520Z,99969.19
2022-09-13T03:44:50.519Z,99961.59
2022-09-13T03:47:52.411Z,99958.38
2022-09-13T03:50:54.244Z,99974.91
2022-09-13T03:54:00.579Z,99976.06
2022-09-13T03:57:22.314Z,99972.28
2022-09-13T04:00:24.111Z,99981.59
2022-09-13T04:03:27.336Z,99973.03
2022-09-13T04:06:28.717Z,99988.22
2022-09-13T04:09:31.407Z,99982.34
2022-09-13T04:12:32.776Z,99977.41
2022-09-13T04:15:34.156Z,99988.31
2022-09-13T04:18:35.613Z,100001.81
2022-09-13T04:21:38.068Z,100000.75
2022-09-13T04:24:39.919Z,99986.44
2022-09-13T04:27:41.367Z,99986.53
2022-09-13T04:30:46.858Z,99996.22
2022-09-13T04:33:49.448Z,99990.59
2022-09-13T04:36:52.400Z,99995.06
2022-09-13T04:39:53.820Z,99989.75
2022-09-13T04:42:55.219Z,99995.28
2022-09-13T04:46:00.988Z,99988.25
2022-09-13T04:49:03.111Z,99993.91
2022-09-13T04:52:04.474Z,100003.22
2022-09-13T04:55:06.812Z,99996.78
2022-09-13T04:58:08.193Z,99995.66
2022-09-13T05:01:10.693Z,99993.94
2022-09-13T05:04:12.419Z,99990.13
2022-09-13T05:07:13.786Z,99997.34
2022-09-13T05:10:19.431Z,100002.47
2022-09-13T05:13:21.125Z,99993.06
2022-09-13T05:16:33.197Z,100009.31
2022-09-13T05:19:34.993Z,100013.69
2022-09-13T05:22:36.359Z,100025.19
2022-09-13T05:25:37.737Z,100028.88
2022-09-13T05:28:39.151Z,100034.09
2022-09-13T05:31:42.209Z,100041.13
2022-09-13T05:34:44.337Z,100032.88
2022-09-13T05:37:45.780Z,100032.19
2022-09-13T05:40:47.572Z,100031.53
2022-09-13T05:43:49.129Z,100037.50
2022-09-13T05:46:50.487Z,100038.56
2022-09-13T05:50:09.380Z,100033.03
2022-09-13T05:53:12.025Z,100024.97
2022-09-13T05:56:16.912Z,100036.88
2022-09-13T05:59:18.339Z,100035.25
2022-09-13T06:02:19.743Z,100031.53
2022-09-13T06:05:21.182Z,100032.38
2022-09-13T06:08:24.096Z,100024.88
2022-09-13T06:11:26.678Z,100024.69
2022-09-13T06:14:28.104Z,100040.06
2022-09-13T06:17:29.464Z,100044.22
2022-09-13T06:20:30.977Z,100035.88
2022-09-13T06:23:32.349Z,100033.38
2022-09-13T06:26:33.801Z,100028.06
2022-09-13T06:29:35.163Z,100018.78
2022-09-13T06:32:36.528Z,100014.00
2022-09-13T06:35:37.945Z,100026.75
2022-09-13T06:38:39.351Z,100015.56
2022-09-13T06:41:40.945Z,100006.53
2022-09-13T06:44:42.315Z,100015.09
2022-09-13T06:47:43.679Z,100018.50
2022-09-13T06:50:45.735Z,100013.06
2022-09-13T06:53:48.437Z,100021.31
2022-09-13T06:56:49.870Z,100018.44
2022-09-13T06:59:51.363Z,100014.81
2022-09-13T07:02:52.786Z,100014.75
2022-09-13T07:05:54.177Z,100014.31
2022-09-13T07:08:57.220Z,100022.19
2022-09-13T07:11:58.608Z,100025.22
2022-09-13T07:14:59.970Z,100018.53
2022-09-13T07:18:01.409Z,100013.75
2022-09-13T07:21:08.346Z,100009.03
2022-09-13T07:24:10.418Z,100001.59
2022-09-13T07:27:12.784Z,100001.84
2022-09-13T07:30:14.523Z,99997.22
2022-09-13T07:33:16.405Z,100012.97
2022-09-13T07:36:17.791Z,100024.03
2022-09-13T07:39:22.279Z,100020.75
2022-09-13T07:42:23.978Z,100024.50
2022-09-13T07:45:25.451Z,100016.81
2022-09-13T07:48:33.255Z,100028.88
2022-09-13T07:51:36.942Z,100030.25
2022-09-13T07:54:38.347Z,100034.69
2022-09-13T07:57:39.719Z,100029.03
2022-09-13T08:00:41.080Z,100026.44
2022-09-13T08:03:42.711Z,100025.28
2022-09-13T08:06:44.686Z,100017.81
2022-09-13T08:09:46.191Z,100015.06
2022-09-13T08:12:50.270Z,100007.31
2022-09-13T08:15:51.734Z,100013.75
2022-09-13T08:18:55.030Z,100007.31
2022-09-13T08:21:56.419Z,100012.88
2022-09-13T08:24:57.798Z,100030.34
2022-09-13T08:27:59.229Z,100027.09
2022-09-13T08:31:11.658Z,100013.84
2022-09-13T08:34:15.067Z,100010.81
2022-09-13T08:37:16.483Z,100012.75
2022-09-13T08:40:17.978Z,100011.31
2022-09-13T08:43:48.611Z,100004.31
2022-09-13T08:46:50.977Z,99997.59
2022-09-13T08:50:00.042Z,99994.50
2022-09-13T08:53:26.332Z,99992.38
2022-09-13T08:56:50.952Z,99990.00
2022-09-13T09:00:07.908Z,99998.72
2022-09-13T09:03:38.437Z,99997.91
2022-09-13T09:06:40.093Z,100005.06
2022-09-13T09:09:53.735Z,100002.84
2022-09-13T09:12:59.521Z,99995.78
2022-09-13T09:16:30.422Z,99991.75
2022-09-13T09:19:36.309Z,99994.56
2022-09-13T09:22:37.807Z,99993.72
2022-09-13T09:25:39.440Z,99980.31
2022-09-13T09:28:40.822Z,99981.63
2022-09-13T09:32:03.275Z,99970.78
2022-09-13T09:35:16.000Z,99994.97
2022-09-13T09:38:23.170Z,100014.53
2022-09-13T09:41:31.527Z,100021.19
2022-09-13T09:44:34.447Z,100022.00
2022-09-13T09:47:46.012Z,100025.78
2022-09-13T09:50:51.776Z,100020.72
2022-09-13T09:54:01.889Z,100017.88
2022-09-13T09:57:03.562Z,100019.31
2022-09-13T10:00:12.610Z,100011.00
2022-09-13T10:03:19.784Z,100000.88
2022-09-13T10:06:27.624Z,100000.56
2022-09-13T10:09:29.054Z,99997.84
2022-09-13T10:12:34.206Z,99987.47
2022-09-13T10:15:35.791Z,99985.13
2022-09-13T10:18:44.558Z,99987.22
2022-09-13T10:22:00.045Z,99999.63
2022-09-13T10:25:29.657Z,99994.44
2022-09-13T10:28:34.845Z,100008.00
2022-09-13T10:31:44.057Z,100003.91
2022-09-13T10:34:46.544Z,100021.19
2022-09-13T10:37:48.045Z,100023.59
2022-09-13T10:40:49.434Z,100030.66
2022-09-13T10:44:09.608Z,100032.13
2022-09-13T10:47:19.783Z,100022.91
2022-09-13T10:50:24.605Z,100013.72
2022-09-13T10:53:41.200Z,100003.31
2022-09-13T10:56:46.078Z,100000.81
2022-09-13T10:59:54.625Z,100007.34
2022-09-13T11:03:13.400Z,100015.09
2022-09-13T11:06:33.062Z,100003.81
2022-09-13T11:09:37.961Z,100002.69
2022-09-13T11:12:46.424Z,99997.72
2022-09-13T11:15:57.775Z,99979.91
2022-09-13T11:19:14.693Z,99978.50
2022-09-13T11:22:25.406Z,99979.03
2022-09-13T11:25:40.308Z,99975.94
2022-09-13T11:29:00.329Z,99974.78
2022-09-13T11:32:07.546Z,99979.59
2022-09-13T11:35:27.781Z,99981.44
2022-09-13T11:38:49.614Z,99985.84
2022-09-13T11:42:01.061Z,99987.81
2022-09-13T11:45:23.993Z,99986.69
2022-09-13T11:48:33.161Z,99982.88
2022-09-13T11:51:57.884Z,99978.50
2022-09-13T11:54:59.230Z,99962.03
2022-09-13T11:58:15.460Z,99946.03
2022-09-13T12:01:27.498Z,99939.84
2022-09-13T12:04:38.642Z,99939.53
2022-09-13T12:07:51.405Z,99939.53
2022-09-13T12:11:18.843Z,99929.38
2022-09-13T12:14:25.565Z,99919.66
2022-09-13T12:17:40.352Z,99912.41
2022-09-13T12:20:58.854Z,99907.69
2022-09-13T12:24:00.173Z,99900.75
2022-09-13T12:27:11.791Z,99888.91
2022-09-13T12:30:17.400Z,99890.72
2022-09-13T12:33:19.715Z,99885.53
2022-09-13T12:36:39.429Z,99879.38
2022-09-13T12:40:09.606Z,99881.31
2022-09-13T12:43:14.006Z,99876.53
2022-09-13T12:46:26.827Z,99875.69
2022-09-13T12:49:33.949Z,99887.38
2022-09-13T12:52:52.018Z,99881.63
2022-09-13T12:56:31.861Z,99859.34
2022-09-13T13:00:07.956Z,99855.66
2022-09-13T13:03:11.862Z,99842.00
2022-09-13T13:06:35.157Z,99845.19
2022-09-13T13:09:42.405Z,99851.13
2022-09-13T13:12:43.844Z,99853.59
2022-09-13T13:15:49.749Z,99851.81
2022-09-13T13:18:54.124Z,99845.50
2022-09-13T13:21:55.640Z,99837.47
2022-09-13T13:24:57.146Z,99830.84
2022-09-13T13:27:59.083Z,99836.81
2022-09-13T13:31:00.703Z,99830.09
2022-09-13T13:34:14.320Z,99825.56
2022-09-13T13:37:15.637Z,99824.94
2022-09-13T13:40:21.599Z,99827.78
2022-09-13T13:43:32.113Z,99819.38
2022-09-13T13:46:33.629Z,99830.38
2022-09-13T13:49:40.978Z,99825.28
2022-09-13T13:52:48.654Z,99830.66
2022-09-13T13:56:07.569Z,99832.03
2022-09-13T13:59:16.346Z,99827.69
2022-09-13T14:02:26.054Z,99823.94
2022-09-13T14:05:49.931Z,99812.97
2022-09-13T14:09:15.763Z,99809.22
2022-09-13T14:12:36.976Z,99799.28
2022-09-13T14:15:48.175Z,99793.88
2022-09-13T14:19:17.442Z,99784.66
2022-09-13T14:22:26.523Z,99788.72
2022-09-13T14:25:28.452Z,99793.13
2022-09-13T14:28:32.183Z,99780.09
2022-09-13T14:31:33.806Z,99781.13
2022-09-13T14:34:38.666Z,99781.28
2022-09-13T14:37:40.304Z,99771.84
2022-09-13T14:40:41.778Z,99761.53
2022-09-13T14:43:45.231Z,99759.34
2022-09-13T14:46:54.444Z,99754.13
2022-09-13T14:50:22.249Z,99754.47
2022-09-13T14:53:34.182Z,99747.88
2022-09-13T14:56:45.268Z,99746.72
2022-09-13T14:59:50.112Z,99746.03
2022-09-13T15:02:54.533Z,99733.56
2022-09-13T15:05:58.505Z,99728.81
2022-09-13T15:09:12.199Z,99723.72
2022-09-13T15:12:28.222Z,99715.78
2022-09-13T15:15:36.171Z,99711.03
2022-09-13T15:18:37.589Z,99703.09
2022-09-13T15:21:39.033Z,99695.50
2022-09-13T15:24:46.280Z,99702.59
2022-09-13T15:27:48.744Z,99704.44
2022-09-13T15:30:51.519Z,99699.72
2022-09-13T15:34:17.927Z,99689.56
2022-09-13T15:37:29.361Z,99690.63
2022-09-13T15:40:42.888Z,99676.09
2022-09-13T15:43:44.974Z,99673.25
2022-09-13T15:47:10.971Z,99662.47
2022-09-13T15:50:20.856Z,99654.16
2022-09-13T15:53:22.234Z,99659.22
2022-09-13T15:56:35.395Z,99660.75
2022-09-13T15:59:36.772Z,99663.63
2022-09-13T16:02:38.204Z,99653.16
2022-09-13T16:05:41.922Z,99648.63
2022-09-13T16:08:43.347Z,99653.50
2022-09-13T16:11:46.102Z,99650.94
2022-09-13T16:14:47.624Z,99648.91
2022-09-13T16:17:49.051Z,99644.97
2022-09-13T16:20:50.945Z,99638.88
2022-09-13T16:23:52.303Z,99655.38
2022-09-13T16:26:53.849Z,99647.25
2022-09-13T16:29:55.220Z,99644.56
2022-09-13T16:32:56.727Z,99647.56
2022-09-13T16:36:02.161Z,99643.66
2022-09-13T16:39:04.754Z,99650.56
2022-09-13T16:42:06.594Z,99645.81
2022-09-13T16:45:10.220Z,99640.75
2022-09-13T16:48:12.017Z,99643.75
2022-09-13T16:51:13.414Z,99638.97
2022-09-13T16:54:14.825Z,99644.00
2022-09-13T16:57:16.280Z,99651.72
2022-09-13T17:00:19.961Z,99644.97
2022-09-13T17:03:21.506Z,99634.50
2022-09-13T17:06:24.535Z,99635.84
2022-09-13T17:09:30.793Z,99644.91
2022-09-13T17:12:32.945Z,99647.94
2022-09-13T17:15:39.090Z,99655.81
2022-09-13T17:18:40.689Z,99659.28
2022-09-13T17:21:42.818Z,99655.56
2022-09-13T17:24:44.648Z,99662.38
2022-09-13T17:27:46.034Z,99677.03
2022-09-13T17:30:47.468Z,99670.56
2022-09-13T17:33:49.875Z,99660.13
2022-09-13T17:36:52.248Z,99658.88
2022-09-13T17:39:53.694Z,99643.63
2022-09-13T17:42:55.406Z,99635.50
2022-09-13T17:45:57.357Z,99647.72
2022-09-13T17:48:59.812Z,99638.19
2022-09-13T17:52:02.112Z,99646.16
2022-09-13T17:55:04.640Z,99641.41
2022-09-13T17:58:06.025Z,99638.66
2022-09-13T18:01:09.538Z,99637.22
2022-09-13T18:04:12.361Z,99632.75
2022-09-13T18:07:13.780Z,99638.59
2022-09-13T18:10:32.568Z,99633.94
2022-09-13T18:13:37.416Z,99637.25
2022-09-13T18:16:38.884Z,99642.22
2022-09-13T18:19:46.298Z,99632.06
2022-09-13T18:22:48.272Z,99645.13
2022-09-13T18:26:03.015Z,99647.09
2022-09-13T18:29:09.544Z,99662.25
2022-09-13T18:32:10.969Z,99662.53
2022-09-13T18:35:12.339Z,99667.94
2022-09-13T18:38:13.833Z,99682.34
2022-09-13T18:41:18.062Z,99682.66
2022-09-13T18:44:19.646Z,99680.00
2022-09-13T18:47:21.103Z,99680.31
2022-09-13T18:50:22.463Z,99678.06
2022-09-13T18:53:34.130Z,99684.44
2022-09-13T18:56:36.538Z,99684.97
2022-09-13T18:59:37.905Z,99682.47
2022-09-13T19:02:56.590Z,99663.94
2022-09-13T19:06:20.089Z,99675.97
2022-09-13T19:09:22.777Z,99669.47
2022-09-13T19:12:24.303Z,99669.94
2022-09-13T19:15:25.817Z,99682.25
2022-09-13T19:18:28.197Z,99676.47
2022-09-13T19:21:31.685Z,99670.66
2022-09-13T19:24:33.721Z,99676.75
2022-09-13T19:27:35.125Z,99675.91
2022-09-13T19:30:36.534Z,99669.25
2022-09-13T19:33:39.538Z,99666.84
2022-09-13T19:36:42.895Z,99668.28
2022-09-13T19:39:45.512Z,99675.59
2022-09-13T19:42:46.985Z,99678.72
2022-09-13T19:46:05.186Z,99680.84
2022-09-13T19:49:08.349Z,99672.78
2022-09-13T19:52:09.831Z,99677.19
2022-09-13T19:55:11.266Z,99679.56
2022-09-13T19:58:13.856Z,99678.72
2022-09-13T20:01:21.103Z,99674.50
2022-09-13T20:04:23.598Z,99684.09
2022-09-13T20:07:25.277Z,99676.44
2022-09-13T20:10:27.268Z,99680.66
2022-09-13T20:13:28.624Z,99675.56
2022-09-13T20:16:33.673Z,99674.75
2022-09-13T20:19:46.412Z,99680.09
2022-09-13T20:22:51.011Z,99683.34
2022-09-13T20:25:52.647Z,99681.47
2022-09-13T20:28:59.958Z,99673.84
2022-09-13T20:32:02.186Z,99673.56
2022-09-13T20:35:03.865Z,99675.28
2022-09-13T20:38:05.523Z,99682.34
2022-09-13T20:41:10.450Z,99675.69
2022-09-13T20:44:12.092Z,99680.94
2022-09-13T20:47:13.466Z,99687.13
2022-09-13T20:50:15.224Z,99677.81
2022-09-13T20:53:16.589Z,99668.50
2022-09-13T20:56:18.653Z,99668.31
2022-09-13T20:59:21.208Z,99651.50
2022-09-13T21:02:22.605Z,99657.72
2022-09-13T21:05:24.140Z,99649.84
2022-09-13T21:08:43.859Z,99655.31
2022-09-13T21:11:45.326Z,99668.97
2022-09-13T21:14:46.745Z,99667.22
2022-09-13T21:17:48.121Z,99661.53
2022-09-13T21:21:00.483Z,99664.50
2022-09-13T21:24:04.252Z,99662.69
2022-09-13T21:27:06.833Z,99653.63
2022-09-13T21:30:08.671Z,99647.31
2022-09-13T21:33:10.316Z,99643.63
2022-09-13T21:36:13.010Z,99637.56
2022-09-13T21:39:16.267Z,99631.34
2022-09-13T21:42:17.737Z,99625.16
2022-09-13T21:45:19.105Z,99629.53
2022-09-13T21:48:22.150Z,99622.19
2022-09-13T21:51:35.210Z,99625.94
2022-09-13T21:54:36.665Z,99630.16
2022-09-13T21:57:38.033Z,99617.38
2022-09-13T22:00:39.518Z,99612.69
2022-09-13T22:03:43.750Z,99620.16
2022-09-13T22:06:46.932Z,99615.53
2022-09-13T22:09:48.283Z,99609.03
2022-09-13T22:12:49.646Z,99603.69
2022-09-13T22:15:51.033Z,99594.66
2022-09-13T22:18:55.671Z,99590.28
2022-09-13T22:21:59.191Z,99583.38
2022-09-13T22:25:00.903Z,99573.38
2022-09-13T22:28:02.543Z,99573.66
2022-09-13T22:31:19.008Z,99568.72
2022-09-13T22:34:23.909Z,99564.22
2022-09-13T22:37:25.321Z,99558.00
2022-09-13T22:40:27.509Z,99546.44
2022-09-13T22:43:29.019Z,99558.28
2022-09-13T22:46:34.299Z,99558.84
2022-09-13T22:49:35.675Z,99552.34
2022-09-13T22:52:37.051Z,99555.69
2022-09-13T22:55:38.409Z,99545.59
2022-09-13T22:58:40.448Z,99533.28
2022-09-13T23:01:42.064Z,99525.97
2022-09-13T23:04:43.489Z,99519.06
2022-09-13T23:07:44.858Z,99509.78
2022-09-13T23:10:46.786Z,99504.13
2022-09-13T23:13:49.963Z,99493.97
2022-09-13T23:16:52.229Z,99497.97
2022-09-13T23:19:53.676Z,99502.47
2022-09-13T23:22:55.027Z,99512.63
2022-09-13T23:26:06.436Z,99507.28
2022-09-13T23:29:15.369Z,99514.59
2022-09-13T23:32:16.938Z,99515.16
2022-09-13T23:35:18.430Z,99526.13
2022-09-13T23:38:19.865Z,99536.28
2022-09-13T23:41:22.285Z,99551.81
2022-09-13T23:44:24.185Z,99552.66
2022-09-13T23:47:25.563Z,99550.81
2022-09-13T23:50:26.927Z,99539.81
2022-09-13T23:53:28.606Z,99541.34
2022-09-13T23:56:31.237Z,99564.66
2022-09-13T23:59:32.823Z,99585.41
